createdAt,value
2022-08-31T00:00:18.735Z,64.77
2022-08-31T00:03:10.100Z,64.14
2022-08-31T00:05:46.025Z,63.80
2022-08-31T00:08:22.049Z,64.25
2022-08-31T00:10:57.547Z,64.64
2022-08-31T00:13:32.476Z,64.43
2022-08-31T00:16:08.459Z,64.59
2022-08-31T00:18:43.038Z,64.54
2022-08-31T00:21:19.178Z,64.38
2022-08-31T00:23:54.090Z,65.14
2022-08-31T00:26:28.913Z,65.77
2022-08-31T00:29:04.300Z,66.46
2022-08-31T00:31:39.107Z,66.36
2022-08-31T00:34:13.792Z,65.65
2022-08-31T00:36:49.802Z,65.48
2022-08-31T00:39:24.393Z,65.61
2022-08-31T00:41:59.717Z,65.80
2022-08-31T00:44:34.585Z,66.15
2022-08-31T00:47:10.644Z,66.75
2022-08-31T00:49:50.278Z,67.13
2022-08-31T00:52:33.222Z,67.63
2022-08-31T00:55:17.202Z,67.58
2022-08-31T00:57:55.503Z,67.49
2022-08-31T01:00:32.445Z,67.37
2022-08-31T01:03:09.147Z,67.15
2022-08-31T01:05:43.715Z,67.45
2022-08-31T01:08:21.576Z,67.38
2022-08-31T01:11:04.620Z,67.38
2022-08-31T01:13:40.268Z,67.54
2022-08-31T01:16:21.763Z,67.37
2022-08-31T01:18:59.800Z,67.26
2022-08-31T01:21:44.658Z,67.57
2022-08-31T01:24:22.857Z,67.19
2022-08-31T01:26:58.951Z,68.36
2022-08-31T01:29:34.662Z,67.69
2022-08-31T01:32:10.814Z,67.89
2022-08-31T01:34:45.437Z,68.45
2022-08-31T01:37:20.019Z,69.00
2022-08-31T01:40:05.983Z,68.99
2022-08-31T01:42:40.645Z,68.90
2022-08-31T01:45:15.635Z,69.19
2022-08-31T01:47:50.186Z,69.42
2022-08-31T01:50:24.968Z,69.50
2022-08-31T01:53:01.925Z,70.07
2022-08-31T01:55:37.863Z,69.81
2022-08-31T01:58:12.463Z,70.22
2022-08-31T02:00:48.522Z,69.56
2022-08-31T02:03:23.069Z,69.29
2022-08-31T02:08:31.912Z,68.62
2022-08-31T02:11:09.124Z,69.35
2022-08-31T02:13:43.910Z,69.51
2022-08-31T02:16:18.460Z,70.38
2022-08-31T02:18:53.741Z,70.48
2022-08-31T02:21:28.904Z,70.38
2022-08-31T02:24:03.417Z,70.05
2022-08-31T02:26:39.213Z,69.42
2022-08-31T02:29:13.993Z,69.55
2022-08-31T02:31:48.617Z,69.73
2022-08-31T02:34:23.236Z,69.96
2022-08-31T02:36:58.248Z,69.84
2022-08-31T02:39:34.367Z,70.28
2022-08-31T02:42:10.334Z,70.10
2022-08-31T02:44:45.008Z,70.44
2022-08-31T02:47:20.200Z,70.60
2022-08-31T02:49:55.189Z,70.57
2022-08-31T02:52:29.788Z,70.35
2022-08-31T02:55:04.354Z,70.38
2022-08-31T02:57:41.549Z,70.49
2022-08-31T03:00:16.817Z,70.63
2022-08-31T03:02:52.510Z,70.14
2022-08-31T03:05:27.604Z,70.38
2022-08-31T03:08:02.225Z,70.25
2022-08-31T03:10:36.911Z,69.92
2022-08-31T03:13:13.146Z,69.75
2022-08-31T03:15:49.802Z,69.40
2022-08-31T03:18:24.747Z,69.40
2022-08-31T03:20:59.423Z,69.36
2022-08-31T03:23:34.459Z,69.44
2022-08-31T03:26:09.670Z,69.89
2022-08-31T03:28:45.510Z,69.66
2022-08-31T03:31:20.872Z,69.92
2022-08-31T03:33:55.756Z,70.37
2022-08-31T03:36:30.680Z,70.23
2022-08-31T03:39:05.279Z,70.52
2022-08-31T03:41:40.130Z,70.36
2022-08-31T03:44:16.282Z,70.73
2022-08-31T03:46:51.225Z,70.86
2022-08-31T03:49:26.999Z,70.99
2022-08-31T03:52:03.081Z,71.42
2022-08-31T03:54:38.023Z,71.31
2022-08-31T03:57:12.828Z,71.84
2022-08-31T03:59:48.744Z,71.57
2022-08-31T04:02:24.415Z,71.72
2022-08-31T04:04:59.122Z,71.80
2022-08-31T04:07:42.073Z,72.05
2022-08-31T04:10:18.118Z,72.22
2022-08-31T04:12:53.179Z,72.47
2022-08-31T04:15:29.377Z,72.45
2022-08-31T04:18:04.033Z,72.39
2022-08-31T04:20:40.531Z,73.34
2022-08-31T04:23:14.911Z,73.33
2022-08-31T04:25:49.301Z,73.77
2022-08-31T04:28:23.972Z,73.81
2022-08-31T04:31:01.150Z,73.97
2022-08-31T04:33:35.849Z,74.44
2022-08-31T04:36:13.896Z,74.41
2022-08-31T04:38:50.929Z,74.17
2022-08-31T04:41:28.908Z,74.72
2022-08-31T04:44:04.898Z,74.29
2022-08-31T04:46:42.020Z,74.39
2022-08-31T04:49:16.835Z,75.45
2022-08-31T04:51:51.959Z,75.20
2022-08-31T04:54:26.772Z,75.46
2022-08-31T04:57:01.497Z,75.59
2022-08-31T04:59:36.084Z,75.92
2022-08-31T05:02:11.686Z,76.22
2022-08-31T05:04:46.481Z,76.51
2022-08-31T05:07:20.925Z,76.96
2022-08-31T05:09:55.555Z,76.69
2022-08-31T05:12:29.896Z,76.43
2022-08-31T05:15:04.607Z,76.11
2022-08-31T05:17:40.752Z,76.41
2022-08-31T05:20:15.398Z,76.50
2022-08-31T05:22:50.061Z,77.01
2022-08-31T05:25:24.738Z,76.88
2022-08-31T05:27:59.511Z,76.61
2022-08-31T05:30:33.926Z,76.88
2022-08-31T05:33:10.041Z,76.79
2022-08-31T05:35:45.525Z,77.45
2022-08-31T05:38:20.320Z,77.74
2022-08-31T05:40:56.281Z,77.73
2022-08-31T05:43:31.727Z,77.84
2022-08-31T05:46:10.400Z,77.93
2022-08-31T05:48:49.142Z,78.15
2022-08-31T05:51:24.947Z,78.45
2022-08-31T05:54:01.988Z,78.45
2022-08-31T05:56:37.394Z,78.29
2022-08-31T05:59:12.775Z,77.91
2022-08-31T06:01:47.860Z,77.93
2022-08-31T06:04:23.946Z,78.13
2022-08-31T06:06:58.940Z,78.06
2022-08-31T06:09:34.042Z,78.20
2022-08-31T06:12:10.734Z,78.34
2022-08-31T06:14:54.624Z,78.17
2022-08-31T06:17:29.314Z,78.17
2022-08-31T06:20:08.442Z,77.85
2022-08-31T06:22:48.325Z,77.12
2022-08-31T06:25:25.012Z,76.98
2022-08-31T06:28:00.150Z,77.01
2022-08-31T06:30:47.791Z,77.43
2022-08-31T06:33:29.535Z,77.44
2022-08-31T06:36:06.054Z,77.11
2022-08-31T06:38:41.438Z,76.77
2022-08-31T06:41:18.124Z,77.13
2022-08-31T06:43:53.234Z,77.36
2022-08-31T06:46:29.577Z,77.06
2022-08-31T06:49:04.935Z,76.73
2022-08-31T06:51:45.825Z,76.77
2022-08-31T06:54:29.347Z,76.88
2022-08-31T06:57:05.420Z,76.92
2022-08-31T06:59:40.104Z,77.26
2022-08-31T07:02:14.997Z,78.32
2022-08-31T07:04:49.809Z,78.57
2022-08-31T07:07:26.029Z,79.10
2022-08-31T07:10:00.810Z,79.52
2022-08-31T07:12:35.268Z,79.60
2022-08-31T07:15:10.634Z,80.39
2022-08-31T07:17:46.121Z,80.25
2022-08-31T07:20:20.774Z,80.23
2022-08-31T07:22:57.083Z,80.48
2022-08-31T07:25:31.774Z,79.56
2022-08-31T07:28:06.301Z,79.92
2022-08-31T07:30:42.594Z,80.01
2022-08-31T07:33:17.350Z,79.13
2022-08-31T07:35:52.092Z,79.36
2022-08-31T07:38:45.081Z,79.74
2022-08-31T07:41:37.135Z,79.17
2022-08-31T07:44:13.270Z,78.75
2022-08-31T07:46:49.659Z,78.10
2022-08-31T07:49:24.583Z,78.46
2022-08-31T07:52:00.335Z,77.91
2022-08-31T07:54:36.632Z,77.83
2022-08-31T07:57:11.366Z,77.63
2022-08-31T07:59:47.527Z,77.65
2022-08-31T08:02:24.044Z,78.20
2022-08-31T08:05:00.914Z,78.12
2022-08-31T08:07:34.661Z,78.08
2022-08-31T08:10:14.021Z,77.48
2022-08-31T08:12:57.904Z,77.28
2022-08-31T08:15:35.780Z,77.05
2022-08-31T08:18:10.868Z,75.97
2022-08-31T08:20:44.084Z,76.77
2022-08-31T08:23:26.838Z,76.76
2022-08-31T08:26:09.517Z,76.45
2022-08-31T08:28:43.920Z,76.00
2022-08-31T08:31:22.978Z,76.05
2022-08-31T08:33:56.593Z,76.43
2022-08-31T08:36:35.758Z,75.62
2022-08-31T08:39:13.021Z,75.36
2022-08-31T08:41:49.186Z,74.57
2022-08-31T08:44:24.455Z,74.33
2022-08-31T08:47:00.678Z,74.72
2022-08-31T08:49:42.578Z,74.71
2022-08-31T08:52:24.719Z,74.39
2022-08-31T08:55:03.158Z,74.02
2022-08-31T08:57:42.504Z,73.68
2022-08-31T09:00:20.016Z,73.89
2022-08-31T09:02:58.396Z,74.41
2022-08-31T09:06:00.428Z,72.95
2022-08-31T09:09:08.784Z,73.52
2022-08-31T09:11:56.143Z,73.04
2022-08-31T09:14:48.950Z,73.35
2022-08-31T09:17:41.871Z,73.02
2022-08-31T09:20:16.550Z,73.34
2022-08-31T09:22:52.793Z,72.51
2022-08-31T09:25:33.061Z,72.78
2022-08-31T09:28:13.483Z,71.99
2022-08-31T09:30:53.270Z,70.48
2022-08-31T09:33:30.067Z,70.22
2022-08-31T09:36:19.080Z,70.14
2022-08-31T09:38:52.327Z,70.81
2022-08-31T09:41:36.499Z,70.33
2022-08-31T09:44:35.058Z,69.99
2022-08-31T09:47:48.480Z,69.31
2022-08-31T09:50:33.317Z,69.33
2022-08-31T09:53:39.595Z,69.33
2022-08-31T09:56:17.090Z,69.03
2022-08-31T09:58:53.945Z,67.97
2022-08-31T10:01:35.245Z,67.56
2022-08-31T10:04:23.400Z,67.70
2022-08-31T10:07:14.075Z,66.79
2022-08-31T10:09:49.667Z,67.29
2022-08-31T10:12:43.417Z,66.81
2022-08-31T10:15:23.342Z,66.63
2022-08-31T10:18:04.045Z,66.17
2022-08-31T10:20:45.537Z,65.25
2022-08-31T10:23:27.127Z,64.92
2022-08-31T10:26:07.259Z,63.75
2022-08-31T10:28:50.880Z,63.96
2022-08-31T10:31:31.602Z,63.82
2022-08-31T10:34:27.900Z,63.21
2022-08-31T10:37:09.988Z,63.24
2022-08-31T10:39:48.317Z,62.56
2022-08-31T10:42:30.024Z,61.85
2022-08-31T10:45:17.767Z,61.66
2022-08-31T10:47:55.470Z,61.51
2022-08-31T10:50:40.321Z,61.52
2022-08-31T10:53:27.188Z,61.36
2022-08-31T10:56:14.211Z,61.45
2022-08-31T10:59:12.306Z,60.82
2022-08-31T11:01:57.063Z,59.60
2022-08-31T11:05:01.073Z,59.18
2022-08-31T11:07:46.698Z,59.65
2022-08-31T11:10:31.337Z,58.98
2022-08-31T11:13:15.093Z,58.15
2022-08-31T11:16:13.734Z,58.10
2022-08-31T11:19:10.452Z,56.47
2022-08-31T11:22:16.390Z,54.63
2022-08-31T11:25:34.650Z,56.26
2022-08-31T11:28:13.738Z,56.39
2022-08-31T11:30:51.041Z,56.63
2022-08-31T11:33:29.047Z,56.18
2022-08-31T11:36:08.818Z,57.40
2022-08-31T11:38:52.193Z,55.06
2022-08-31T11:41:43.078Z,54.74
2022-08-31T11:45:06.966Z,56.46
2022-08-31T11:47:44.213Z,57.00
2022-08-31T11:51:00.213Z,56.67
2022-08-31T11:53:44.370Z,56.09
2022-08-31T11:56:37.598Z,56.13
2022-08-31T11:59:26.296Z,57.13
2022-08-31T12:02:22.978Z,56.57
2022-08-31T12:05:02.716Z,56.29
2022-08-31T12:07:43.482Z,56.94
2022-08-31T12:10:35.162Z,57.91
2022-08-31T12:13:24.107Z,57.11
2022-08-31T12:16:19.175Z,55.21
2022-08-31T12:19:35.217Z,54.44
2022-08-31T12:22:48.591Z,54.98
2022-08-31T12:25:34.541Z,55.87
2022-08-31T12:28:18.261Z,54.70
2022-08-31T12:31:07.329Z,54.41
2022-08-31T12:33:55.855Z,54.46
2022-08-31T12:36:32.289Z,53.97
2022-08-31T12:39:10.323Z,53.52
2022-08-31T12:41:50.339Z,53.83
2022-08-31T12:44:25.642Z,53.22
2022-08-31T12:47:06.030Z,54.01
2022-08-31T12:50:07.665Z,52.41
2022-08-31T12:52:59.238Z,53.95
2022-08-31T12:55:43.798Z,53.00
2022-08-31T12:58:39.185Z,53.65
2022-08-31T13:01:15.454Z,54.01
2022-08-31T13:03:54.309Z,53.62
2022-08-31T13:06:30.881Z,54.11
2022-08-31T13:09:06.040Z,54.21
2022-08-31T13:11:43.805Z,54.09
2022-08-31T13:14:22.984Z,54.12
2022-08-31T13:17:01.811Z,53.66
2022-08-31T13:19:37.096Z,54.06
2022-08-31T13:22:17.226Z,54.71
2022-08-31T13:24:54.021Z,55.41
2022-08-31T13:27:31.631Z,54.22
2022-08-31T13:30:18.460Z,54.56
2022-08-31T13:32:54.806Z,53.50
2022-08-31T13:35:37.034Z,53.11
2022-08-31T13:38:11.905Z,52.84
2022-08-31T13:40:53.219Z,52.63
2022-08-31T13:43:37.363Z,53.14
2022-08-31T13:46:11.311Z,53.08
2022-08-31T13:48:53.874Z,53.21
2022-08-31T13:51:34.055Z,53.39
2022-08-31T13:54:14.991Z,53.54
2022-08-31T13:56:58.891Z,52.89
2022-08-31T13:59:37.743Z,52.71
2022-08-31T14:02:37.201Z,52.68
2022-08-31T14:05:12.879Z,52.51
2022-08-31T14:08:03.852Z,52.71
2022-08-31T14:10:42.105Z,53.02
2022-08-31T14:13:20.899Z,53.13
2022-08-31T14:15:58.132Z,51.87
2022-08-31T14:18:40.174Z,51.64
2022-08-31T14:21:21.772Z,50.35
2022-08-31T14:24:00.468Z,50.23
2022-08-31T14:26:36.867Z,50.76
2022-08-31T14:29:13.088Z,49.96
2022-08-31T14:31:52.266Z,50.05
2022-08-31T14:34:29.729Z,49.62
2022-08-31T14:37:07.389Z,49.63
2022-08-31T14:39:45.596Z,49.06
2022-08-31T14:42:21.687Z,49.77
2022-08-31T14:45:03.100Z,49.38
2022-08-31T14:47:43.953Z,51.60
2022-08-31T14:50:23.568Z,47.94
2022-08-31T14:52:57.495Z,48.46
2022-08-31T14:55:30.923Z,49.29
2022-08-31T14:58:11.258Z,48.84
2022-08-31T15:00:53.166Z,48.03
2022-08-31T15:03:31.041Z,49.58
2022-08-31T15:06:05.164Z,50.79
2022-08-31T15:08:39.008Z,51.34
2022-08-31T15:11:12.238Z,51.92
2022-08-31T15:13:45.828Z,52.62
2022-08-31T15:16:18.941Z,53.59
2022-08-31T15:18:54.353Z,55.34
2022-08-31T15:21:28.079Z,55.32
2022-08-31T15:24:01.187Z,55.67
2022-08-31T15:26:34.268Z,55.88
2022-08-31T15:29:07.341Z,55.62
2022-08-31T15:31:49.509Z,55.94
2022-08-31T15:34:27.386Z,56.33
2022-08-31T15:37:03.823Z,56.59
2022-08-31T15:39:43.346Z,55.33
2022-08-31T15:42:21.114Z,52.93
2022-08-31T15:44:56.967Z,52.37
2022-08-31T15:47:50.379Z,52.86
2022-08-31T15:50:31.757Z,53.73
2022-08-31T15:53:11.994Z,53.81
2022-08-31T15:55:45.516Z,53.59
2022-08-31T15:58:24.478Z,53.37
2022-08-31T16:00:58.336Z,54.27
2022-08-31T16:03:34.942Z,53.65
2022-08-31T16:06:11.282Z,53.72
2022-08-31T16:08:44.522Z,54.24
2022-08-31T16:11:17.971Z,54.67
2022-08-31T16:13:54.349Z,55.27
2022-08-31T16:16:30.999Z,56.19
2022-08-31T16:19:08.282Z,56.36
2022-08-31T16:21:45.925Z,56.05
2022-08-31T16:24:22.421Z,56.09
2022-08-31T16:26:57.638Z,56.57
2022-08-31T16:29:31.112Z,56.94
2022-08-31T16:32:06.700Z,56.98
2022-08-31T16:34:42.680Z,56.96
2022-08-31T16:37:17.272Z,56.94
2022-08-31T16:39:50.446Z,56.07
2022-08-31T16:42:23.585Z,56.38
2022-08-31T16:45:01.788Z,56.92
2022-08-31T16:47:35.414Z,57.25
2022-08-31T16:50:08.966Z,57.56
2022-08-31T16:52:44.631Z,57.35
2022-08-31T16:55:17.936Z,56.75
2022-08-31T16:57:51.061Z,56.87
2022-08-31T17:00:28.376Z,57.90
2022-08-31T17:03:06.419Z,58.37
2022-08-31T17:05:41.045Z,58.67
2022-08-31T17:08:15.636Z,59.14
2022-08-31T17:10:50.744Z,59.48
2022-08-31T17:13:23.955Z,59.83
2022-08-31T17:15:57.145Z,60.34
2022-08-31T17:18:30.369Z,61.06
2022-08-31T17:21:03.535Z,61.54
2022-08-31T17:23:40.052Z,61.14
2022-08-31T17:26:13.203Z,61.89
2022-08-31T17:28:54.919Z,62.62
2022-08-31T17:31:28.866Z,63.08
2022-08-31T17:34:02.349Z,63.47
2022-08-31T17:36:37.684Z,63.40
2022-08-31T17:39:13.650Z,63.95
2022-08-31T17:41:48.863Z,63.67
2022-08-31T17:44:26.461Z,63.42
2022-08-31T17:47:03.808Z,63.46
2022-08-31T17:49:40.385Z,64.22
2022-08-31T17:52:16.754Z,64.70
2022-08-31T17:54:52.385Z,65.37
2022-08-31T17:57:25.901Z,66.18
2022-08-31T17:59:59.076Z,65.84
2022-08-31T18:02:34.752Z,65.88
2022-08-31T18:05:11.726Z,65.87
2022-08-31T18:07:46.799Z,66.37
2022-08-31T18:10:21.810Z,66.88
2022-08-31T18:12:54.987Z,66.99
2022-08-31T18:15:28.846Z,67.21
2022-08-31T18:18:02.341Z,67.62
2022-08-31T18:20:39.399Z,68.02
2022-08-31T18:23:16.493Z,68.38
2022-08-31T18:25:51.047Z,68.81
2022-08-31T18:28:24.226Z,68.87
2022-08-31T18:30:57.408Z,69.41
2022-08-31T18:33:31.138Z,69.98
2022-08-31T18:36:09.640Z,70.45
2022-08-31T18:38:42.865Z,70.53
2022-08-31T18:41:41.255Z,71.29
2022-08-31T18:44:33.382Z,71.34
2022-08-31T18:47:12.400Z,71.39
2022-08-31T18:49:46.811Z,72.05
2022-08-31T18:52:23.063Z,72.14
2022-08-31T18:54:59.395Z,72.19
2022-08-31T18:57:36.422Z,72.61
2022-08-31T19:00:22.982Z,72.82
2022-08-31T19:02:56.455Z,73.47
2022-08-31T19:05:31.992Z,74.28
2022-08-31T19:08:05.901Z,74.77
2022-08-31T19:10:42.195Z,75.32
2022-08-31T19:13:16.783Z,75.83
2022-08-31T19:15:50.386Z,76.36
2022-08-31T19:18:23.861Z,76.49
2022-08-31T19:20:57.172Z,77.17
2022-08-31T19:23:30.578Z,77.62
2022-08-31T19:26:03.942Z,78.17
2022-08-31T19:28:38.501Z,78.39
2022-08-31T19:31:12.089Z,78.71
2022-08-31T19:33:46.169Z,79.27
2022-08-31T19:36:20.404Z,79.36
2022-08-31T19:39:06.176Z,78.51
2022-08-31T19:44:55.777Z,78.84
2022-08-31T19:47:48.376Z,79.03
2022-08-31T19:50:22.141Z,78.86
2022-08-31T19:52:55.369Z,78.68
2022-08-31T19:55:28.539Z,78.36
2022-08-31T19:58:02.250Z,78.68
2022-08-31T20:00:38.779Z,78.35
2022-08-31T20:03:13.463Z,79.16
2022-08-31T20:05:46.573Z,78.48
2022-08-31T20:08:19.929Z,78.78
2022-08-31T20:10:53.438Z,78.68
2022-08-31T20:13:28.453Z,78.48
2022-08-31T20:16:04.748Z,78.49
2022-08-31T20:18:38.627Z,78.54
2022-08-31T20:21:16.793Z,78.88
2022-08-31T20:23:53.449Z,79.40
2022-08-31T20:26:36.210Z,79.63
2022-08-31T20:29:13.695Z,79.31
2022-08-31T20:31:50.707Z,79.80
2022-08-31T20:34:28.051Z,80.06
2022-08-31T20:37:01.640Z,80.66
2022-08-31T20:39:35.473Z,81.22
2022-08-31T20:42:08.979Z,81.25
2022-08-31T20:44:43.558Z,81.08
2022-08-31T20:47:41.123Z,81.17
2022-08-31T20:50:14.951Z,82.35
2022-08-31T20:52:48.153Z,82.44
2022-08-31T20:55:22.574Z,82.43
2022-08-31T20:57:55.650Z,82.23
2022-08-31T21:00:29.731Z,82.16
2022-08-31T21:03:04.229Z,82.44
2022-08-31T21:05:38.979Z,82.26
2022-08-31T21:08:13.923Z,82.99
2022-08-31T21:10:46.955Z,83.61
2022-08-31T21:13:20.193Z,83.44
2022-08-31T21:15:54.087Z,83.71
2022-08-31T21:18:29.237Z,83.65
2022-08-31T21:21:07.363Z,84.44
2022-08-31T21:23:40.508Z,84.21
2022-08-31T21:26:20.903Z,84.90
2022-08-31T21:28:57.952Z,84.72
2022-08-31T21:31:31.192Z,84.71
2022-08-31T21:34:06.290Z,84.15
2022-08-31T21:36:40.043Z,84.17
2022-08-31T21:39:16.277Z,84.75
2022-08-31T21:41:50.438Z,85.23
2022-08-31T21:44:24.412Z,84.77
2022-08-31T21:46:57.993Z,84.90
2022-08-31T21:49:34.004Z,85.36
2022-08-31T21:52:07.110Z,84.94
2022-08-31T21:54:40.979Z,85.02
2022-08-31T21:57:16.119Z,84.64
2022-08-31T21:59:50.191Z,84.27
2022-08-31T22:02:23.388Z,84.79
2022-08-31T22:04:57.861Z,85.38
2022-08-31T22:07:31.553Z,86.17
2022-08-31T22:10:06.833Z,86.43
2022-08-31T22:12:39.956Z,86.68
2022-08-31T22:15:16.707Z,87.65
2022-08-31T22:18:11.400Z,88.07
2022-08-31T22:20:45.179Z,87.86
2022-08-31T22:23:18.252Z,88.08
2022-08-31T22:25:51.726Z,87.95
2022-08-31T22:28:27.679Z,88.23
2022-08-31T22:31:02.947Z,88.81
2022-08-31T22:33:36.444Z,89.26
2022-08-31T22:36:31.809Z,88.66
2022-08-31T22:39:09.061Z,88.70
2022-08-31T22:41:43.233Z,89.00
2022-08-31T22:44:19.467Z,88.89
2022-08-31T22:46:52.789Z,88.41
2022-08-31T22:49:27.107Z,89.11
2022-08-31T22:52:01.597Z,89.37
2022-08-31T22:54:35.580Z,89.34
2022-08-31T22:57:08.687Z,89.51
2022-08-31T22:59:42.333Z,89.85
2022-08-31T23:02:17.246Z,90.00
2022-08-31T23:04:50.377Z,90.97
2022-08-31T23:07:25.165Z,90.94
2022-08-31T23:09:58.961Z,90.31
2022-08-31T23:12:31.994Z,90.35
2022-08-31T23:15:06.307Z,90.46
2022-08-31T23:17:44.542Z,90.88
2022-08-31T23:20:24.156Z,90.50
2022-08-31T23:23:01.043Z,90.03
2022-08-31T23:25:35.331Z,90.44
2022-08-31T23:28:08.646Z,90.46
2022-08-31T23:30:44.716Z,90.42
2022-08-31T23:33:19.916Z,90.41
2022-08-31T23:35:55.773Z,90.91
2022-08-31T23:38:32.474Z,89.86
2022-08-31T23:41:05.622Z,89.97
2022-08-31T23:43:43.735Z,90.43
2022-08-31T23:46:16.860Z,90.78
2022-08-31T23:48:50.090Z,90.87
2022-08-31T23:51:25.612Z,90.89
2022-08-31T23:54:00.443Z,90.63
2022-08-31T23:56:33.849Z,90.80
2022-08-31T23:59:13.224Z,90.84
